createdAt,value
2023-04-29T00:00:27.809Z,10.25
2023-04-29T00:02:51.712Z,10.77
2023-04-29T00:05:15.770Z,10.27
2023-04-29T00:07:41.008Z,10.93
2023-04-29T00:10:05.026Z,10.20
2023-04-29T00:12:30.398Z,9.73
2023-04-29T00:14:53.948Z,9.50
2023-04-29T00:17:17.673Z,9.20
2023-04-29T00:19:41.335Z,9.38
2023-04-29T00:22:04.968Z,10.25
2023-04-29T00:24:30.051Z,9.93
2023-04-29T00:26:53.566Z,9.20
2023-04-29T00:29:17.245Z,9.30
2023-04-29T00:31:40.768Z,9.13
2023-04-29T00:34:04.446Z,9.52
2023-04-29T00:36:28.511Z,10.15
2023-04-29T00:38:52.045Z,9.90
2023-04-29T00:41:17.034Z,10.55
2023-04-29T00:43:40.846Z,9.77
2023-04-29T00:46:04.509Z,10.10
2023-04-29T00:48:28.099Z,9.13
2023-04-29T00:50:51.982Z,9.90
2023-04-29T00:53:15.786Z,9.77
2023-04-29T00:55:40.072Z,10.30
2023-04-29T00:58:05.124Z,10.00
2023-04-29T01:00:29.719Z,10.15
2023-04-29T01:02:57.083Z,10.25
2023-04-29T01:05:20.814Z,10.40
2023-04-29T01:07:57.952Z,10.50
2023-04-29T01:10:29.263Z,10.18
2023-04-29T01:13:01.900Z,11.50
2023-04-29T01:15:33.272Z,11.27
2023-04-29T01:18:01.909Z,12.68
2023-04-29T01:20:27.547Z,12.20
2023-04-29T01:22:51.292Z,12.20
2023-04-29T01:25:16.668Z,12.55
2023-04-29T01:28:30.352Z,12.07
2023-04-29T01:31:03.355Z,13.10
2023-04-29T01:33:36.238Z,13.00
2023-04-29T01:36:12.126Z,12.95
2023-04-29T01:38:43.375Z,12.05
2023-04-29T01:41:16.103Z,12.52
2023-04-29T01:43:42.238Z,13.10
2023-04-29T01:46:19.725Z,13.30
2023-04-29T01:48:43.741Z,13.43
2023-04-29T01:51:07.750Z,14.05
2023-04-29T01:53:31.575Z,14.48
2023-04-29T01:55:55.188Z,14.50
2023-04-29T01:58:40.108Z,14.10
2023-04-29T02:01:23.031Z,16.15
2023-04-29T02:03:46.826Z,15.70
2023-04-29T02:06:12.382Z,16.15
2023-04-29T02:08:36.152Z,17.13
2023-04-29T02:11:01.001Z,16.38
2023-04-29T02:13:39.736Z,17.08
2023-04-29T02:16:10.496Z,17.50
2023-04-29T02:18:36.593Z,17.08
2023-04-29T02:21:02.769Z,17.67
2023-04-29T02:23:30.376Z,16.80
2023-04-29T02:25:54.197Z,18.73
2023-04-29T02:28:17.904Z,17.90
2023-04-29T02:30:42.864Z,18.45
2023-04-29T02:33:08.396Z,17.58
2023-04-29T02:35:32.334Z,17.55
2023-04-29T02:37:56.466Z,17.60
2023-04-29T02:40:20.109Z,18.85
2023-04-29T02:42:43.757Z,19.33
2023-04-29T02:45:09.345Z,18.35
2023-04-29T02:47:34.407Z,16.42
2023-04-29T02:49:58.003Z,18.48
2023-04-29T02:52:21.601Z,19.27
2023-04-29T02:54:45.965Z,18.25
2023-04-29T02:57:09.593Z,19.17
2023-04-29T02:59:33.132Z,18.00
2023-04-29T03:01:57.051Z,18.00
2023-04-29T03:04:22.352Z,19.63
2023-04-29T03:06:46.149Z,20.00
2023-04-29T03:09:10.280Z,19.30
2023-04-29T03:11:33.832Z,21.13
2023-04-29T03:13:57.919Z,20.38
2023-04-29T03:16:22.154Z,21.52
2023-04-29T03:18:46.258Z,22.30
2023-04-29T03:21:11.453Z,22.48
2023-04-29T03:23:35.005Z,20.80
2023-04-29T03:26:00.734Z,22.40
2023-04-29T03:28:24.384Z,23.58
2023-04-29T03:30:48.318Z,23.70
2023-04-29T03:33:11.866Z,22.98
2023-04-29T03:35:35.619Z,24.30
2023-04-29T03:38:09.284Z,24.23
2023-04-29T03:40:34.482Z,23.90
2023-04-29T03:42:58.128Z,25.05
2023-04-29T03:45:21.955Z,25.67
2023-04-29T03:47:45.617Z,26.45
2023-04-29T03:50:10.250Z,27.55
2023-04-29T03:52:36.428Z,26.80
2023-04-29T03:55:07.292Z,26.25
2023-04-29T03:57:31.152Z,27.40
2023-04-29T03:59:55.273Z,25.88
2023-04-29T04:02:20.662Z,26.33
2023-04-29T04:04:44.532Z,25.90
2023-04-29T04:07:08.258Z,26.42
2023-04-29T04:09:50.499Z,27.23
2023-04-29T04:12:15.740Z,27.23
2023-04-29T04:14:39.285Z,26.60
2023-04-29T04:17:02.940Z,28.60
2023-04-29T04:19:27.133Z,28.70
2023-04-29T04:21:50.962Z,28.52
2023-04-29T04:24:15.042Z,29.30
2023-04-29T04:26:39.096Z,29.20
2023-04-29T04:29:14.244Z,29.70
2023-04-29T04:31:56.200Z,29.80
2023-04-29T04:34:21.012Z,32.25
2023-04-29T04:36:47.130Z,30.33
2023-04-29T04:39:10.793Z,30.08
2023-04-29T04:41:34.376Z,30.00
2023-04-29T04:44:00.287Z,30.65
2023-04-29T04:46:37.588Z,30.83
2023-04-29T04:49:08.278Z,30.10
2023-04-29T04:51:37.810Z,30.90
2023-04-29T04:54:01.394Z,32.22
2023-04-29T04:56:26.484Z,31.13
2023-04-29T04:58:50.091Z,30.95
2023-04-29T05:01:13.675Z,31.98
2023-04-29T05:03:38.939Z,32.22
2023-04-29T05:06:02.901Z,33.20
2023-04-29T05:08:27.670Z,31.67
2023-04-29T05:10:54.351Z,33.08
2023-04-29T05:13:18.510Z,31.95
2023-04-29T05:15:42.990Z,32.33
2023-04-29T05:18:06.873Z,31.52
2023-04-29T05:20:32.315Z,34.88
2023-04-29T05:22:58.046Z,34.83
2023-04-29T05:25:22.542Z,30.90
2023-04-29T05:27:46.323Z,34.60
2023-04-29T05:30:13.909Z,33.80
2023-04-29T05:32:37.707Z,32.65
2023-04-29T05:35:05.999Z,32.88
2023-04-29T05:37:32.630Z,32.17
2023-04-29T05:40:09.563Z,30.85
2023-04-29T05:42:33.350Z,31.88
2023-04-29T05:44:58.002Z,33.35
2023-04-29T05:47:21.690Z,32.63
2023-04-29T05:49:45.468Z,31.55
2023-04-29T05:52:09.421Z,31.45
2023-04-29T05:54:40.188Z,30.15
2023-04-29T05:57:04.484Z,30.40
2023-04-29T05:59:28.006Z,31.13
2023-04-29T06:01:52.239Z,30.77
2023-04-29T06:04:16.140Z,30.15
2023-04-29T06:06:58.965Z,28.88
2023-04-29T06:09:44.083Z,29.95
2023-04-29T06:12:08.037Z,29.55
2023-04-29T06:14:31.602Z,27.30
2023-04-29T06:16:55.876Z,27.48
2023-04-29T06:19:20.779Z,25.98
2023-04-29T06:21:45.298Z,26.65
2023-04-29T06:24:08.981Z,27.63
2023-04-29T06:26:34.099Z,26.90
2023-04-29T06:28:57.610Z,26.52
2023-04-29T06:31:23.075Z,26.50
2023-04-29T06:33:47.846Z,24.83
2023-04-29T06:36:12.964Z,25.27
2023-04-29T06:38:58.398Z,24.38
2023-04-29T06:41:37.991Z,25.23
2023-04-29T06:44:10.875Z,24.10
2023-04-29T06:46:44.078Z,24.45
2023-04-29T06:49:18.168Z,24.50
2023-04-29T06:51:42.858Z,23.55
2023-04-29T06:54:06.463Z,24.77
2023-04-29T06:56:30.102Z,24.42
2023-04-29T06:58:55.076Z,25.30
2023-04-29T07:01:18.640Z,25.65
2023-04-29T07:03:42.493Z,25.25
2023-04-29T07:06:06.312Z,25.25
2023-04-29T07:08:29.991Z,25.63
2023-04-29T07:10:57.712Z,25.35
2023-04-29T07:13:21.275Z,24.58
2023-04-29T07:15:47.890Z,25.55
2023-04-29T07:18:12.121Z,23.30
2023-04-29T07:20:38.557Z,24.38
2023-04-29T07:23:02.177Z,21.88
2023-04-29T07:25:25.949Z,22.05
2023-04-29T07:27:49.522Z,21.35
2023-04-29T07:30:13.469Z,21.20
2023-04-29T07:32:39.210Z,19.38
2023-04-29T07:35:02.858Z,19.17
2023-04-29T07:37:26.872Z,18.52
2023-04-29T07:39:50.550Z,18.48
2023-04-29T07:42:14.097Z,17.55
2023-04-29T07:44:38.644Z,17.77
2023-04-29T07:47:02.268Z,17.33
2023-04-29T07:49:27.321Z,15.93
2023-04-29T07:51:50.849Z,17.48
2023-04-29T07:54:14.521Z,18.05
2023-04-29T07:56:38.088Z,17.65
2023-04-29T07:59:02.251Z,16.80
2023-04-29T08:01:25.797Z,18.23
2023-04-29T08:03:49.645Z,18.02
2023-04-29T08:06:18.375Z,17.02
2023-04-29T08:08:42.571Z,17.48
2023-04-29T08:11:07.502Z,17.45
2023-04-29T08:13:34.222Z,16.08
2023-04-29T08:15:58.027Z,16.95
2023-04-29T08:18:22.448Z,16.63
2023-04-29T08:20:45.956Z,17.33
2023-04-29T08:23:11.561Z,17.27
2023-04-29T08:25:35.094Z,17.40
2023-04-29T08:27:58.675Z,16.67
2023-04-29T08:30:22.297Z,16.85
2023-04-29T08:32:46.167Z,16.95
2023-04-29T08:35:11.200Z,16.52
2023-04-29T08:37:34.786Z,17.08
2023-04-29T08:39:59.698Z,17.58
2023-04-29T08:42:36.380Z,19.35
2023-04-29T08:45:02.282Z,18.55
2023-04-29T08:47:25.929Z,19.65
2023-04-29T08:49:49.656Z,20.95
2023-04-29T08:52:13.174Z,22.15
2023-04-29T08:54:37.327Z,22.23
2023-04-29T08:57:02.828Z,22.98
2023-04-29T08:59:27.626Z,23.73
2023-04-29T09:01:54.438Z,24.30
2023-04-29T09:04:35.300Z,24.77
2023-04-29T09:07:00.739Z,23.02
2023-04-29T09:09:25.840Z,26.40
2023-04-29T09:11:49.445Z,25.85
2023-04-29T09:14:15.594Z,26.58
2023-04-29T09:16:39.262Z,24.67
2023-04-29T09:19:02.788Z,27.40
2023-04-29T09:21:28.267Z,28.65
2023-04-29T09:23:54.464Z,29.15
2023-04-29T09:26:18.533Z,29.15
2023-04-29T09:28:44.693Z,31.98
2023-04-29T09:31:09.673Z,31.00
2023-04-29T09:33:33.539Z,35.90
2023-04-29T09:35:57.162Z,35.33
2023-04-29T09:38:22.118Z,34.70
2023-04-29T09:40:57.268Z,36.55
2023-04-29T09:43:23.750Z,35.97
2023-04-29T09:45:49.332Z,38.10
2023-04-29T09:48:15.715Z,39.08
2023-04-29T09:50:40.676Z,37.83
2023-04-29T09:53:04.834Z,37.83
2023-04-29T09:55:29.311Z,36.42
2023-04-29T09:57:52.901Z,35.65
2023-04-29T10:00:16.666Z,35.72
2023-04-29T10:02:44.217Z,38.00
2023-04-29T10:05:10.946Z,37.45
2023-04-29T10:07:35.268Z,37.33
2023-04-29T10:09:58.783Z,34.25
2023-04-29T10:12:22.723Z,34.65
2023-04-29T10:14:55.176Z,33.22
2023-04-29T10:17:26.155Z,32.50
2023-04-29T10:19:55.578Z,32.85
2023-04-29T10:22:28.259Z,30.70
2023-04-29T10:24:53.882Z,28.65
2023-04-29T10:27:18.570Z,31.25
2023-04-29T10:29:44.774Z,29.92
2023-04-29T10:32:11.125Z,29.85
2023-04-29T10:34:35.636Z,28.20
2023-04-29T10:36:59.639Z,29.05
2023-04-29T10:39:34.873Z,28.33
2023-04-29T10:41:59.239Z,26.63
2023-04-29T10:44:24.105Z,26.13
2023-04-29T10:46:47.791Z,25.45
2023-04-29T10:49:12.866Z,26.25
2023-04-29T10:51:41.933Z,25.15
2023-04-29T10:54:10.652Z,25.55
2023-04-29T10:56:49.423Z,24.75
2023-04-29T10:59:17.169Z,23.95
2023-04-29T11:01:49.456Z,21.67
2023-04-29T11:04:13.252Z,22.55
2023-04-29T11:06:47.367Z,21.42
2023-04-29T11:09:14.668Z,21.67
2023-04-29T11:12:00.580Z,21.10
2023-04-29T11:14:27.866Z,20.27
2023-04-29T11:16:55.055Z,20.42
2023-04-29T11:19:18.919Z,20.13
2023-04-29T11:21:42.544Z,21.20
2023-04-29T11:24:08.162Z,19.30
2023-04-29T11:26:31.774Z,18.65
2023-04-29T11:28:59.399Z,17.85
2023-04-29T11:31:27.496Z,16.98
2023-04-29T11:33:52.536Z,19.42
2023-04-29T11:36:16.251Z,16.92
2023-04-29T11:38:42.205Z,17.42
2023-04-29T11:41:06.055Z,17.75
2023-04-29T11:43:29.759Z,17.27
2023-04-29T11:45:55.514Z,16.75
2023-04-29T11:48:20.072Z,17.02
2023-04-29T11:50:44.018Z,17.27
2023-04-29T11:53:07.756Z,16.17
2023-04-29T11:55:31.685Z,16.58
2023-04-29T11:57:55.430Z,15.50
2023-04-29T12:00:19.263Z,15.20
2023-04-29T12:02:49.058Z,15.60
2023-04-29T12:05:16.399Z,14.80
2023-04-29T12:07:42.033Z,15.10
2023-04-29T12:10:11.901Z,14.38
2023-04-29T12:12:37.346Z,14.38
2023-04-29T12:15:03.677Z,14.35
2023-04-29T12:17:27.689Z,14.07
2023-04-29T12:19:53.047Z,13.80
2023-04-29T12:22:16.627Z,13.43
2023-04-29T12:24:41.376Z,12.52
2023-04-29T12:27:05.901Z,12.00
2023-04-29T12:29:29.464Z,11.88
2023-04-29T12:31:53.344Z,11.88
2023-04-29T12:34:17.086Z,10.55
2023-04-29T12:36:43.797Z,10.95
2023-04-29T12:39:11.196Z,9.38
2023-04-29T12:41:39.310Z,9.80
2023-04-29T12:44:04.233Z,8.55
2023-04-29T12:46:27.811Z,7.70
2023-04-29T12:48:51.551Z,7.15
2023-04-29T12:51:15.278Z,7.45
2023-04-29T12:53:40.929Z,7.38
2023-04-29T12:56:04.813Z,7.50
2023-04-29T12:58:31.197Z,6.82
2023-04-29T13:00:54.777Z,6.72
2023-04-29T13:03:20.424Z,6.85
2023-04-29T13:05:48.601Z,6.55
2023-04-29T13:08:12.151Z,6.40
2023-04-29T13:10:37.362Z,6.85
2023-04-29T13:13:01.397Z,6.57
2023-04-29T13:15:24.993Z,6.70
2023-04-29T13:17:48.598Z,6.90
2023-04-29T13:20:13.542Z,7.35
2023-04-29T13:22:37.448Z,8.20
2023-04-29T13:25:01.256Z,8.30
2023-04-29T13:27:26.436Z,8.95
2023-04-29T13:29:50.413Z,8.27
2023-04-29T13:32:14.236Z,10.20
2023-04-29T13:34:38.034Z,10.80
2023-04-29T13:37:01.820Z,11.18
2023-04-29T13:39:25.724Z,10.38
2023-04-29T13:41:49.413Z,10.20
2023-04-29T13:46:40.830Z,9.73
2023-04-29T13:49:31.927Z,10.02
2023-04-29T13:52:22.087Z,9.40
2023-04-29T14:02:21.728Z,10.65
2023-04-29T14:04:36.957Z,11.00
2023-04-29T14:07:00.773Z,9.55
2023-04-29T14:09:24.869Z,10.15
2023-04-29T14:11:48.536Z,9.70
2023-04-29T14:14:12.138Z,9.88
2023-04-29T14:16:37.248Z,9.00
2023-04-29T14:19:03.564Z,9.27
2023-04-29T14:21:28.075Z,8.52
2023-04-29T14:23:51.953Z,8.70
2023-04-29T14:28:42.315Z,8.40
2023-04-29T14:31:06.435Z,7.45
2023-04-29T14:33:31.453Z,7.97
2023-04-29T14:35:55.397Z,8.07
2023-04-29T14:38:19.041Z,7.60
2023-04-29T14:40:42.554Z,7.28
2023-04-29T14:43:06.695Z,7.50
2023-04-29T14:45:30.229Z,7.05
2023-04-29T14:47:53.823Z,6.35
2023-04-29T14:50:18.858Z,7.45
2023-04-29T14:52:42.571Z,6.90
2023-04-29T14:55:07.894Z,7.32
2023-04-29T14:57:31.636Z,6.78
2023-04-29T14:59:55.244Z,7.38
2023-04-29T15:02:18.825Z,6.53
2023-04-29T15:04:45.697Z,6.90
2023-04-29T15:07:11.128Z,6.90
2023-04-29T15:09:34.735Z,6.72
2023-04-29T15:11:58.348Z,7.05
2023-04-29T15:14:21.907Z,6.82
2023-04-29T15:16:46.029Z,7.40
2023-04-29T15:19:09.672Z,7.18
2023-04-29T15:21:33.657Z,6.68
2023-04-29T15:23:58.575Z,7.43
2023-04-29T15:26:22.624Z,6.97
2023-04-29T15:28:46.797Z,7.15
2023-04-29T15:31:10.441Z,7.10
2023-04-29T15:33:34.443Z,6.65
2023-04-29T15:35:58.184Z,6.10
2023-04-29T15:38:21.698Z,5.40
2023-04-29T15:40:46.682Z,6.43
2023-04-29T15:43:10.201Z,5.68
2023-04-29T15:45:34.425Z,5.43
2023-04-29T15:47:57.997Z,5.75
2023-04-29T15:50:21.937Z,5.80
2023-04-29T15:52:45.480Z,5.50
2023-04-29T15:55:09.716Z,5.00
2023-04-29T15:57:40.901Z,6.13
2023-04-29T16:00:05.291Z,6.50
2023-04-29T16:02:28.955Z,6.07
2023-04-29T16:04:52.662Z,5.70
2023-04-29T16:07:16.345Z,6.07
2023-04-29T16:09:40.077Z,6.38
2023-04-29T16:12:03.841Z,6.03
2023-04-29T16:14:30.017Z,6.38
2023-04-29T16:16:53.698Z,6.00
2023-04-29T16:19:17.488Z,6.63
2023-04-29T16:21:41.515Z,6.82
2023-04-29T16:24:05.681Z,6.75
2023-04-29T16:26:29.415Z,5.93
2023-04-29T16:28:53.207Z,6.20
2023-04-29T16:31:19.986Z,5.75
2023-04-29T16:33:43.634Z,5.97
2023-04-29T16:36:07.862Z,4.93
2023-04-29T16:38:31.996Z,4.60
2023-04-29T16:40:55.978Z,4.00
2023-04-29T16:43:19.685Z,3.95
2023-04-29T16:45:43.314Z,4.28
2023-04-29T16:48:08.546Z,3.92
2023-04-29T16:50:32.120Z,3.97
2023-04-29T16:52:55.676Z,3.80
2023-04-29T16:55:19.408Z,3.97
2023-04-29T16:57:43.059Z,3.72
2023-04-29T17:00:10.194Z,3.75
2023-04-29T17:02:33.854Z,4.07
2023-04-29T17:04:58.972Z,3.70
2023-04-29T17:07:22.676Z,4.00
2023-04-29T17:09:47.312Z,3.60
2023-04-29T17:12:11.013Z,3.25
2023-04-29T17:14:34.826Z,3.40
2023-04-29T17:16:58.420Z,3.80
2023-04-29T17:19:21.992Z,3.42
2023-04-29T17:21:47.315Z,3.40
2023-04-29T17:24:10.831Z,3.50
2023-04-29T17:26:34.504Z,3.83
2023-04-29T17:28:58.887Z,3.30
2023-04-29T17:31:25.519Z,4.05
2023-04-29T17:33:55.225Z,4.15
2023-04-29T17:36:18.791Z,3.72
2023-04-29T17:38:43.673Z,3.58
2023-04-29T17:41:07.315Z,4.05
2023-04-29T17:43:33.237Z,3.78
2023-04-29T17:45:59.858Z,3.28
2023-04-29T17:48:23.419Z,3.08
2023-04-29T17:50:47.318Z,3.22
2023-04-29T17:53:10.917Z,3.88
2023-04-29T17:55:35.912Z,4.10
2023-04-29T17:57:59.426Z,4.10
2023-04-29T18:00:23.721Z,3.22
2023-04-29T18:02:47.349Z,3.72
2023-04-29T18:05:11.533Z,3.60
2023-04-29T18:07:35.112Z,3.53
2023-04-29T18:09:58.873Z,3.60
2023-04-29T18:12:24.183Z,3.50
2023-04-29T18:14:48.797Z,3.20
2023-04-29T18:17:12.348Z,2.83
2023-04-29T18:19:36.079Z,2.70
2023-04-29T18:22:01.385Z,3.30
2023-04-29T18:24:25.655Z,3.25
2023-04-29T18:26:49.188Z,3.17
2023-04-29T18:29:14.139Z,3.05
2023-04-29T18:31:37.959Z,3.13
2023-04-29T18:34:01.673Z,2.95
2023-04-29T18:36:25.188Z,2.83
2023-04-29T18:38:49.031Z,2.95
2023-04-29T18:41:13.167Z,2.95
2023-04-29T18:43:36.921Z,3.20
2023-04-29T18:46:02.239Z,3.22
2023-04-29T18:48:27.692Z,2.70
2023-04-29T18:50:53.404Z,3.00
2023-04-29T18:53:16.990Z,2.95
2023-04-29T18:55:40.608Z,3.00
2023-04-29T18:58:04.334Z,3.05
2023-04-29T19:00:27.938Z,3.35
2023-04-29T19:02:52.916Z,2.90
2023-04-29T19:05:16.495Z,2.80
2023-04-29T19:07:40.176Z,2.90
2023-04-29T19:10:03.961Z,3.00
2023-04-29T19:12:27.656Z,3.15
2023-04-29T19:14:51.220Z,3.20
2023-04-29T19:17:14.812Z,3.15
2023-04-29T19:19:39.763Z,3.58
2023-04-29T19:22:05.334Z,3.78
2023-04-29T19:24:28.902Z,3.80
2023-04-29T19:26:52.479Z,4.30
2023-04-29T19:29:16.144Z,7.15
2023-04-29T19:31:39.807Z,6.75
2023-04-29T19:34:03.644Z,9.55
2023-04-29T19:36:28.657Z,8.23
2023-04-29T19:38:52.185Z,6.57
2023-04-29T19:41:15.952Z,7.00
2023-04-29T19:43:39.577Z,7.70
2023-04-29T19:46:03.193Z,7.40
2023-04-29T19:48:26.811Z,7.63
2023-04-29T19:50:50.515Z,7.20
2023-04-29T19:53:15.447Z,7.88
2023-04-29T19:55:40.217Z,9.07
2023-04-29T19:58:03.827Z,9.30
2023-04-29T20:00:27.536Z,8.60
2023-04-29T20:02:52.282Z,9.38
2023-04-29T20:05:16.395Z,8.48
2023-04-29T20:07:40.228Z,8.52
2023-04-29T20:10:06.100Z,8.82
2023-04-29T20:12:29.660Z,8.48
2023-04-29T20:14:53.315Z,8.13
2023-04-29T20:17:17.822Z,7.82
2023-04-29T20:19:41.554Z,7.35
2023-04-29T20:22:05.103Z,7.28
2023-04-29T20:24:28.718Z,7.00
2023-04-29T20:26:53.668Z,7.20
2023-04-29T20:29:17.224Z,7.63
2023-04-29T20:31:40.870Z,7.20
2023-04-29T20:34:04.498Z,7.65
2023-04-29T20:36:28.729Z,6.90
2023-04-29T20:38:52.688Z,6.60
2023-04-29T20:41:16.383Z,6.65
2023-04-29T20:43:41.348Z,6.53
2023-04-29T20:46:04.977Z,6.70
2023-04-29T20:48:28.789Z,6.25
2023-04-29T20:50:52.323Z,6.20
2023-04-29T20:53:16.920Z,5.85
2023-04-29T20:55:40.561Z,6.40
2023-04-29T20:58:04.122Z,5.57
2023-04-29T21:00:29.034Z,5.70
2023-04-29T21:02:52.709Z,5.38
2023-04-29T21:05:16.395Z,5.97
2023-04-29T21:07:39.987Z,6.00
2023-04-29T21:10:03.575Z,6.38
2023-04-29T21:12:27.221Z,6.45
2023-04-29T21:14:50.754Z,6.18
2023-04-29T21:17:16.392Z,6.05
2023-04-29T21:19:39.947Z,6.30
2023-04-29T21:22:03.530Z,6.38
2023-04-29T21:24:28.665Z,6.45
2023-04-29T21:26:52.324Z,6.38
2023-04-29T21:29:15.910Z,6.60
2023-04-29T21:31:39.581Z,6.22
2023-04-29T21:34:04.498Z,7.00
2023-04-29T21:36:28.131Z,7.30
2023-04-29T21:38:52.815Z,7.05
2023-04-29T21:41:22.711Z,7.03
2023-04-29T21:43:46.280Z,7.22
2023-04-29T21:46:09.898Z,7.53
2023-04-29T21:48:34.126Z,7.82
2023-04-29T21:51:00.204Z,7.55
2023-04-29T21:53:23.741Z,8.23
2023-04-29T21:55:47.348Z,7.85
2023-04-29T21:58:11.630Z,7.13
2023-04-29T22:00:36.605Z,7.88
2023-04-29T22:03:01.081Z,7.05
2023-04-29T22:05:24.840Z,7.25
2023-04-29T22:47:23.641Z,3.70
2023-04-29T22:49:47.593Z,3.58
2023-04-29T22:52:11.203Z,3.72
2023-04-29T23:13:32.059Z,2.78
2023-04-29T23:15:58.296Z,2.73
2023-04-29T23:18:21.929Z,2.80
2023-04-29T23:20:48.374Z,2.63
2023-04-29T23:23:11.941Z,2.92
2023-04-29T23:25:36.581Z,2.72
2023-04-29T23:28:00.133Z,2.72
2023-04-29T23:30:25.703Z,2.70
2023-04-29T23:32:49.324Z,3.03
2023-04-29T23:35:13.096Z,2.90
2023-04-29T23:55:24.554Z,2.67
2023-04-29T23:57:48.313Z,2.33
